<?xml version="1.0" encoding="UTF-8" ?>
<gpx version="1.1" xmlns:xsi="http://www.w3.org/2001/XMLSchema-instance"
    xmlns="http://www.topografix.com/GPX/1/1"
    xsi:schemaLocation="http://www.topografix.com/GPX/1/1 http://www.topografix.com/GPX/1/1/gpx.xsd"
    creator="Openrunner - https://www.openrunner.com" >	<trk>
	                   <name>Autour de Montauban-24972905</name>
						<trkseg>
					<trkpt lat="44.044900" lon="1.384840">
						<ele>96</ele>
						<time>2026-08-19T13:11:56Z</time>
					</trkpt>
					<trkpt lat="44.044860" lon="1.384960">
						<ele>96</ele>
						<time>2026-08-19T13:12:01Z</time>
					</trkpt>
					<trkpt lat="44.044930" lon="1.385010">
						<ele>96</ele>
						<time>2026-08-19T13:12:05Z</time>
					</trkpt>
					<trkpt lat="44.044980" lon="1.385040">
						<ele>96</ele>
						<time>2026-08-19T13:12:07Z</time>
					</trkpt>
					<trkpt lat="44.044930" lon="1.385190">
						<ele>96</ele>
						<time>2026-08-19T13:12:13Z</time>
					</trkpt>
					<trkpt lat="44.044910" lon="1.385270">
						<ele>96</ele>
						<time>2026-08-19T13:12:16Z</time>
					</trkpt>
					<trkpt lat="44.044900" lon="1.385360">
						<ele>96</ele>
						<time>2026-08-19T13:12:20Z</time>
					</trkpt>
					<trkpt lat="44.044930" lon="1.385370">
						<ele>96</ele>
						<time>2026-08-19T13:12:21Z</time>
					</trkpt>
					<trkpt lat="44.044940" lon="1.385400">
						<ele>96</ele>
						<time>2026-08-19T13:12:22Z</time>
					</trkpt>
					<trkpt lat="44.044950" lon="1.385430">
						<ele>96</ele>
						<time>2026-08-19T13:12:24Z</time>
					</trkpt>
					<trkpt lat="44.044950" lon="1.385470">
						<ele>97</ele>
						<time>2026-08-19T13:12:25Z</time>
					</trkpt>
					<trkpt lat="44.044940" lon="1.385500">
						<ele>97</ele>
						<time>2026-08-19T13:12:26Z</time>
					</trkpt>
					<trkpt lat="44.044950" lon="1.385510">
						<ele>97</ele>
						<time>2026-08-19T13:12:27Z</time>
					</trkpt>
					<trkpt lat="44.044990" lon="1.385540">
						<ele>97</ele>
						<time>2026-08-19T13:12:29Z</time>
					</trkpt>
					<trkpt lat="44.045170" lon="1.385720">
						<ele>97</ele>
						<time>2026-08-19T13:12:40Z</time>
					</trkpt>
					<trkpt lat="44.045200" lon="1.385720">
						<ele>97</ele>
						<time>2026-08-19T13:12:42Z</time>
					</trkpt>
					<trkpt lat="44.045210" lon="1.385750">
						<ele>97</ele>
						<time>2026-08-19T13:12:43Z</time>
					</trkpt>
					<trkpt lat="44.045240" lon="1.385790">
						<ele>98</ele>
						<time>2026-08-19T13:12:45Z</time>
					</trkpt>
					<trkpt lat="44.045260" lon="1.385800">
						<ele>98</ele>
						<time>2026-08-19T13:12:46Z</time>
					</trkpt>
					<trkpt lat="44.045270" lon="1.385840">
						<ele>98</ele>
						<time>2026-08-19T13:12:48Z</time>
					</trkpt>
					<trkpt lat="44.045270" lon="1.385910">
						<ele>98</ele>
						<time>2026-08-19T13:12:50Z</time>
					</trkpt>
					<trkpt lat="44.045270" lon="1.385980">
						<ele>98</ele>
						<time>2026-08-19T13:12:53Z</time>
					</trkpt>
					<trkpt lat="44.045250" lon="1.386140">
						<ele>98</ele>
						<time>2026-08-19T13:12:58Z</time>
					</trkpt>
					<trkpt lat="44.045230" lon="1.386320">
						<ele>98</ele>
						<time>2026-08-19T13:13:05Z</time>
					</trkpt>
					<trkpt lat="44.045240" lon="1.386420">
						<ele>98</ele>
						<time>2026-08-19T13:13:09Z</time>
					</trkpt>
					<trkpt lat="44.045260" lon="1.386520">
						<ele>98</ele>
						<time>2026-08-19T13:13:12Z</time>
					</trkpt>
					<trkpt lat="44.045270" lon="1.386680">
						<ele>98</ele>
						<time>2026-08-19T13:13:18Z</time>
					</trkpt>
					<trkpt lat="44.045260" lon="1.386960">
						<ele>98</ele>
						<time>2026-08-19T13:13:28Z</time>
					</trkpt>
					<trkpt lat="44.045250" lon="1.387160">
						<ele>98</ele>
						<time>2026-08-19T13:13:35Z</time>
					</trkpt>
					<trkpt lat="44.045220" lon="1.387300">
						<ele>97</ele>
						<time>2026-08-19T13:13:41Z</time>
					</trkpt>
					<trkpt lat="44.044840" lon="1.388380">
						<ele>98</ele>
						<time>2026-08-19T13:14:24Z</time>
					</trkpt>
					<trkpt lat="44.044410" lon="1.387950">
						<ele>99</ele>
						<time>2026-08-19T13:14:50Z</time>
					</trkpt>
					<trkpt lat="44.044250" lon="1.387990">
						<ele>99</ele>
						<time>2026-08-19T13:14:59Z</time>
					</trkpt>
					<trkpt lat="44.044210" lon="1.387770">
						<ele>99</ele>
						<time>2026-08-19T13:15:07Z</time>
					</trkpt>
					<trkpt lat="44.044160" lon="1.387350">
						<ele>100</ele>
						<time>2026-08-19T13:15:22Z</time>
					</trkpt>
					<trkpt lat="44.043960" lon="1.385200">
						<ele>97</ele>
						<time>2026-08-19T13:16:40Z</time>
					</trkpt>
					<trkpt lat="44.043950" lon="1.385110">
						<ele>97</ele>
						<time>2026-08-19T13:16:43Z</time>
					</trkpt>
					<trkpt lat="44.043750" lon="1.382960">
						<ele>95</ele>
						<time>2026-08-19T13:18:01Z</time>
					</trkpt>
					<trkpt lat="44.043740" lon="1.382680">
						<ele>96</ele>
						<time>2026-08-19T13:18:11Z</time>
					</trkpt>
					<trkpt lat="44.043740" lon="1.382370">
						<ele>96</ele>
						<time>2026-08-19T13:18:23Z</time>
					</trkpt>
					<trkpt lat="44.043760" lon="1.382090">
						<ele>95</ele>
						<time>2026-08-19T13:18:33Z</time>
					</trkpt>
					<trkpt lat="44.043810" lon="1.381770">
						<ele>95</ele>
						<time>2026-08-19T13:18:44Z</time>
					</trkpt>
					<trkpt lat="44.043930" lon="1.381060">
						<ele>95</ele>
						<time>2026-08-19T13:19:11Z</time>
					</trkpt>
					<trkpt lat="44.044220" lon="1.379530">
						<ele>96</ele>
						<time>2026-08-19T13:20:08Z</time>
					</trkpt>
					<trkpt lat="44.044230" lon="1.379530">
						<ele>96</ele>
						<time>2026-08-19T13:20:08Z</time>
					</trkpt>
					<trkpt lat="44.044290" lon="1.379550">
						<ele>96</ele>
						<time>2026-08-19T13:20:11Z</time>
					</trkpt>
					<trkpt lat="44.044310" lon="1.379550">
						<ele>96</ele>
						<time>2026-08-19T13:20:12Z</time>
					</trkpt>
					<trkpt lat="44.044350" lon="1.379570">
						<ele>96</ele>
						<time>2026-08-19T13:20:14Z</time>
					</trkpt>
					<trkpt lat="44.044370" lon="1.379570">
						<ele>96</ele>
						<time>2026-08-19T13:20:15Z</time>
					</trkpt>
					<trkpt lat="44.044400" lon="1.379580">
						<ele>96</ele>
						<time>2026-08-19T13:20:17Z</time>
					</trkpt>
					<trkpt lat="44.044420" lon="1.379590">
						<ele>95</ele>
						<time>2026-08-19T13:20:18Z</time>
					</trkpt>
					<trkpt lat="44.044430" lon="1.379600">
						<ele>95</ele>
						<time>2026-08-19T13:20:19Z</time>
					</trkpt>
					<trkpt lat="44.044440" lon="1.379590">
						<ele>95</ele>
						<time>2026-08-19T13:20:19Z</time>
					</trkpt>
					<trkpt lat="44.044450" lon="1.379560">
						<ele>96</ele>
						<time>2026-08-19T13:20:20Z</time>
					</trkpt>
					<trkpt lat="44.044510" lon="1.379510">
						<ele>96</ele>
						<time>2026-08-19T13:20:24Z</time>
					</trkpt>
					<trkpt lat="44.044590" lon="1.379530">
						<ele>95</ele>
						<time>2026-08-19T13:20:28Z</time>
					</trkpt>
					<trkpt lat="44.044600" lon="1.379510">
						<ele>95</ele>
						<time>2026-08-19T13:20:29Z</time>
					</trkpt>
					<trkpt lat="44.044610" lon="1.379490">
						<ele>95</ele>
						<time>2026-08-19T13:20:30Z</time>
					</trkpt>
					<trkpt lat="44.044730" lon="1.379570">
						<ele>95</ele>
						<time>2026-08-19T13:20:36Z</time>
					</trkpt>
					<trkpt lat="44.044900" lon="1.379780">
						<ele>96</ele>
						<time>2026-08-19T13:20:48Z</time>
					</trkpt>
					<trkpt lat="44.045310" lon="1.380260">
						<ele>96</ele>
						<time>2026-08-19T13:21:15Z</time>
					</trkpt>
					<trkpt lat="44.045780" lon="1.380810">
						<ele>97</ele>
						<time>2026-08-19T13:21:45Z</time>
					</trkpt>
					<trkpt lat="44.046150" lon="1.381240">
						<ele>97</ele>
						<time>2026-08-19T13:22:09Z</time>
					</trkpt>
					<trkpt lat="44.047100" lon="1.382270">
						<ele>95</ele>
						<time>2026-08-19T13:23:10Z</time>
					</trkpt>
					<trkpt lat="44.047130" lon="1.382310">
						<ele>95</ele>
						<time>2026-08-19T13:23:12Z</time>
					</trkpt>
					<trkpt lat="44.047210" lon="1.382380">
						<ele>95</ele>
						<time>2026-08-19T13:23:16Z</time>
					</trkpt>
					<trkpt lat="44.047420" lon="1.382610">
						<ele>95</ele>
						<time>2026-08-19T13:23:30Z</time>
					</trkpt>
					<trkpt lat="44.047690" lon="1.382840">
						<ele>96</ele>
						<time>2026-08-19T13:23:46Z</time>
					</trkpt>
					<trkpt lat="44.048130" lon="1.383170">
						<ele>96</ele>
						<time>2026-08-19T13:24:11Z</time>
					</trkpt>
					<trkpt lat="44.048240" lon="1.383280">
						<ele>96</ele>
						<time>2026-08-19T13:24:17Z</time>
					</trkpt>
					<trkpt lat="44.048340" lon="1.383470">
						<ele>96</ele>
						<time>2026-08-19T13:24:26Z</time>
					</trkpt>
					<trkpt lat="44.048440" lon="1.383780">
						<ele>96</ele>
						<time>2026-08-19T13:24:38Z</time>
					</trkpt>
					<trkpt lat="44.048590" lon="1.384410">
						<ele>97</ele>
						<time>2026-08-19T13:25:02Z</time>
					</trkpt>
					<trkpt lat="44.048620" lon="1.384540">
						<ele>97</ele>
						<time>2026-08-19T13:25:07Z</time>
					</trkpt>
					<trkpt lat="44.048700" lon="1.384670">
						<ele>97</ele>
						<time>2026-08-19T13:25:13Z</time>
					</trkpt>
					<trkpt lat="44.048760" lon="1.384730">
						<ele>97</ele>
						<time>2026-08-19T13:25:17Z</time>
					</trkpt>
					<trkpt lat="44.048790" lon="1.384760">
						<ele>97</ele>
						<time>2026-08-19T13:25:19Z</time>
					</trkpt>
					<trkpt lat="44.048900" lon="1.384840">
						<ele>97</ele>
						<time>2026-08-19T13:25:25Z</time>
					</trkpt>
					<trkpt lat="44.049520" lon="1.385170">
						<ele>96</ele>
						<time>2026-08-19T13:25:58Z</time>
					</trkpt>
					<trkpt lat="44.049850" lon="1.385340">
						<ele>96</ele>
						<time>2026-08-19T13:26:16Z</time>
					</trkpt>
					<trkpt lat="44.049840" lon="1.385370">
						<ele>96</ele>
						<time>2026-08-19T13:26:17Z</time>
					</trkpt>
					<trkpt lat="44.049690" lon="1.385900">
						<ele>97</ele>
						<time>2026-08-19T13:26:37Z</time>
					</trkpt>
					<trkpt lat="44.049470" lon="1.386730">
						<ele>96</ele>
						<time>2026-08-19T13:27:09Z</time>
					</trkpt>
					<trkpt lat="44.049490" lon="1.386810">
						<ele>96</ele>
						<time>2026-08-19T13:27:12Z</time>
					</trkpt>
					<trkpt lat="44.049360" lon="1.387390">
						<ele>96</ele>
						<time>2026-08-19T13:27:34Z</time>
					</trkpt>
					<trkpt lat="44.049290" lon="1.387430">
						<ele>96</ele>
						<time>2026-08-19T13:27:38Z</time>
					</trkpt>
					<trkpt lat="44.049630" lon="1.388850">
						<ele>94</ele>
						<time>2026-08-19T13:28:32Z</time>
					</trkpt>
					<trkpt lat="44.049750" lon="1.389250">
						<ele>93</ele>
						<time>2026-08-19T13:28:47Z</time>
					</trkpt>
					<trkpt lat="44.049440" lon="1.389490">
						<ele>95</ele>
						<time>2026-08-19T13:29:05Z</time>
					</trkpt>
					<trkpt lat="44.049410" lon="1.389570">
						<ele>95</ele>
						<time>2026-08-19T13:29:08Z</time>
					</trkpt>
					<trkpt lat="44.049410" lon="1.389640">
						<ele>95</ele>
						<time>2026-08-19T13:29:11Z</time>
					</trkpt>
					<trkpt lat="44.049730" lon="1.390440">
						<ele>95</ele>
						<time>2026-08-19T13:29:44Z</time>
					</trkpt>
					<trkpt lat="44.049750" lon="1.390550">
						<ele>95</ele>
						<time>2026-08-19T13:29:48Z</time>
					</trkpt>
					<trkpt lat="44.049680" lon="1.390550">
						<ele>95</ele>
						<time>2026-08-19T13:29:51Z</time>
					</trkpt>
					<trkpt lat="44.049380" lon="1.390790">
						<ele>96</ele>
						<time>2026-08-19T13:30:09Z</time>
					</trkpt>
					<trkpt lat="44.049290" lon="1.390850">
						<ele>96</ele>
						<time>2026-08-19T13:30:14Z</time>
					</trkpt>
					<trkpt lat="44.049220" lon="1.390910">
						<ele>96</ele>
						<time>2026-08-19T13:30:18Z</time>
					</trkpt>
					<trkpt lat="44.048980" lon="1.391100">
						<ele>96</ele>
						<time>2026-08-19T13:30:32Z</time>
					</trkpt>
					<trkpt lat="44.048770" lon="1.391270">
						<ele>96</ele>
						<time>2026-08-19T13:30:44Z</time>
					</trkpt>
					<trkpt lat="44.048290" lon="1.391660">
						<ele>98</ele>
						<time>2026-08-19T13:31:12Z</time>
					</trkpt>
					<trkpt lat="44.047570" lon="1.392210">
						<ele>99</ele>
						<time>2026-08-19T13:31:53Z</time>
					</trkpt>
					<trkpt lat="44.047480" lon="1.392280">
						<ele>99</ele>
						<time>2026-08-19T13:31:58Z</time>
					</trkpt>
					<trkpt lat="44.047360" lon="1.392360">
						<ele>99</ele>
						<time>2026-08-19T13:32:04Z</time>
					</trkpt>
					<trkpt lat="44.047260" lon="1.392370">
						<ele>99</ele>
						<time>2026-08-19T13:32:09Z</time>
					</trkpt>
					<trkpt lat="44.047180" lon="1.392330">
						<ele>99</ele>
						<time>2026-08-19T13:32:14Z</time>
					</trkpt>
					<trkpt lat="44.046960" lon="1.391980">
						<ele>98</ele>
						<time>2026-08-19T13:32:30Z</time>
					</trkpt>
					<trkpt lat="44.046890" lon="1.391870">
						<ele>98</ele>
						<time>2026-08-19T13:32:36Z</time>
					</trkpt>
					<trkpt lat="44.046820" lon="1.391750">
						<ele>97</ele>
						<time>2026-08-19T13:32:41Z</time>
					</trkpt>
					<trkpt lat="44.046530" lon="1.391300">
						<ele>98</ele>
						<time>2026-08-19T13:33:03Z</time>
					</trkpt>
					<trkpt lat="44.046140" lon="1.390460">
						<ele>99</ele>
						<time>2026-08-19T13:33:39Z</time>
					</trkpt>
					<trkpt lat="44.046010" lon="1.390420">
						<ele>99</ele>
						<time>2026-08-19T13:33:46Z</time>
					</trkpt>
					<trkpt lat="44.046000" lon="1.390220">
						<ele>99</ele>
						<time>2026-08-19T13:33:53Z</time>
					</trkpt>
					<trkpt lat="44.045980" lon="1.390130">
						<ele>99</ele>
						<time>2026-08-19T13:33:56Z</time>
					</trkpt>
					<trkpt lat="44.045950" lon="1.390070">
						<ele>99</ele>
						<time>2026-08-19T13:33:59Z</time>
					</trkpt>
					<trkpt lat="44.045890" lon="1.390000">
						<ele>99</ele>
						<time>2026-08-19T13:34:03Z</time>
					</trkpt>
					<trkpt lat="44.045810" lon="1.389960">
						<ele>99</ele>
						<time>2026-08-19T13:34:07Z</time>
					</trkpt>
					<trkpt lat="44.045790" lon="1.389950">
						<ele>99</ele>
						<time>2026-08-19T13:34:08Z</time>
					</trkpt>
					<trkpt lat="44.045770" lon="1.389950">
						<ele>99</ele>
						<time>2026-08-19T13:34:09Z</time>
					</trkpt>
					<trkpt lat="44.045670" lon="1.389930">
						<ele>99</ele>
						<time>2026-08-19T13:34:14Z</time>
					</trkpt>
					<trkpt lat="44.045540" lon="1.389850">
						<ele>99</ele>
						<time>2026-08-19T13:34:21Z</time>
					</trkpt>
					<trkpt lat="44.045510" lon="1.389920">
						<ele>99</ele>
						<time>2026-08-19T13:34:24Z</time>
					</trkpt>
					<trkpt lat="44.045230" lon="1.389680">
						<ele>98</ele>
						<time>2026-08-19T13:34:41Z</time>
					</trkpt>
					<trkpt lat="44.045130" lon="1.389500">
						<ele>98</ele>
						<time>2026-08-19T13:34:49Z</time>
					</trkpt>
					<trkpt lat="44.045120" lon="1.389410">
						<ele>98</ele>
						<time>2026-08-19T13:34:52Z</time>
					</trkpt>
					<trkpt lat="44.044900" lon="1.388960">
						<ele>98</ele>
						<time>2026-08-19T13:35:12Z</time>
					</trkpt>
					<trkpt lat="44.044820" lon="1.388800">
						<ele>98</ele>
						<time>2026-08-19T13:35:19Z</time>
					</trkpt>
					<trkpt lat="44.044790" lon="1.388650">
						<ele>98</ele>
						<time>2026-08-19T13:35:24Z</time>
					</trkpt>
					<trkpt lat="44.044810" lon="1.388500">
						<ele>98</ele>
						<time>2026-08-19T13:35:30Z</time>
					</trkpt>
					<trkpt lat="44.044850" lon="1.388370">
						<ele>98</ele>
						<time>2026-08-19T13:35:35Z</time>
					</trkpt>
					<trkpt lat="44.045220" lon="1.387300">
						<ele>97</ele>
						<time>2026-08-19T13:36:18Z</time>
					</trkpt>
					<trkpt lat="44.045250" lon="1.387160">
						<ele>98</ele>
						<time>2026-08-19T13:36:23Z</time>
					</trkpt>
					<trkpt lat="44.045260" lon="1.386960">
						<ele>98</ele>
						<time>2026-08-19T13:36:30Z</time>
					</trkpt>
					<trkpt lat="44.045270" lon="1.386680">
						<ele>98</ele>
						<time>2026-08-19T13:36:40Z</time>
					</trkpt>
					<trkpt lat="44.045260" lon="1.386520">
						<ele>98</ele>
						<time>2026-08-19T13:36:46Z</time>
					</trkpt>
					<trkpt lat="44.045240" lon="1.386420">
						<ele>98</ele>
						<time>2026-08-19T13:36:50Z</time>
					</trkpt>
					<trkpt lat="44.045230" lon="1.386320">
						<ele>98</ele>
						<time>2026-08-19T13:36:53Z</time>
					</trkpt>
					<trkpt lat="44.045250" lon="1.386140">
						<ele>98</ele>
						<time>2026-08-19T13:37:00Z</time>
					</trkpt>
					<trkpt lat="44.045270" lon="1.385980">
						<ele>98</ele>
						<time>2026-08-19T13:37:06Z</time>
					</trkpt>
					<trkpt lat="44.045270" lon="1.385840">
						<ele>98</ele>
						<time>2026-08-19T13:37:11Z</time>
					</trkpt>
					<trkpt lat="44.045260" lon="1.385800">
						<ele>98</ele>
						<time>2026-08-19T13:37:12Z</time>
					</trkpt>
					<trkpt lat="44.045240" lon="1.385790">
						<ele>98</ele>
						<time>2026-08-19T13:37:13Z</time>
					</trkpt>
					<trkpt lat="44.045210" lon="1.385750">
						<ele>97</ele>
						<time>2026-08-19T13:37:15Z</time>
					</trkpt>
					<trkpt lat="44.045200" lon="1.385720">
						<ele>97</ele>
						<time>2026-08-19T13:37:17Z</time>
					</trkpt>
					<trkpt lat="44.045170" lon="1.385720">
						<ele>97</ele>
						<time>2026-08-19T13:37:18Z</time>
					</trkpt>
					<trkpt lat="44.044990" lon="1.385540">
						<ele>97</ele>
						<time>2026-08-19T13:37:29Z</time>
					</trkpt>
					<trkpt lat="44.045010" lon="1.385500">
						<ele>97</ele>
						<time>2026-08-19T13:37:31Z</time>
					</trkpt>
					<trkpt lat="44.044990" lon="1.385470">
						<ele>97</ele>
						<time>2026-08-19T13:37:32Z</time>
					</trkpt>
					<trkpt lat="44.044980" lon="1.385380">
						<ele>96</ele>
						<time>2026-08-19T13:37:36Z</time>
					</trkpt>
					<trkpt lat="44.044950" lon="1.385320">
						<ele>96</ele>
						<time>2026-08-19T13:37:38Z</time>
					</trkpt>
					<trkpt lat="44.044950" lon="1.385280">
						<ele>96</ele>
						<time>2026-08-19T13:37:40Z</time>
					</trkpt>
					<trkpt lat="44.044910" lon="1.385270">
						<ele>96</ele>
						<time>2026-08-19T13:37:42Z</time>
					</trkpt>
					<trkpt lat="44.044930" lon="1.385190">
						<ele>96</ele>
						<time>2026-08-19T13:37:45Z</time>
					</trkpt>
					<trkpt lat="44.044980" lon="1.385040">
						<ele>96</ele>
						<time>2026-08-19T13:37:51Z</time>
					</trkpt>
					<trkpt lat="44.044930" lon="1.385010">
						<ele>96</ele>
						<time>2026-08-19T13:37:54Z</time>
					</trkpt>
					<trkpt lat="44.044860" lon="1.384960">
						<ele>96</ele>
						<time>2026-08-19T13:37:57Z</time>
					</trkpt>
					<trkpt lat="44.044880" lon="1.384900">
						<ele>96</ele>
						<time>2026-08-19T13:38:00Z</time>
					</trkpt>
					</trkseg>
				</trk>
			</gpx>